createdAt,value
2023-04-15T00:01:04.522Z,99.90
2023-04-15T00:04:07.437Z,99.90
2023-04-15T00:07:11.748Z,99.90
2023-04-15T00:10:15.179Z,99.90
2023-04-15T00:13:17.980Z,99.90
2023-04-15T00:16:21.337Z,99.90
2023-04-15T00:19:24.174Z,99.90
2023-04-15T00:22:28.333Z,99.90
2023-04-15T00:25:31.115Z,99.90
2023-04-15T00:28:33.960Z,99.90
2023-04-15T00:31:36.773Z,99.90
2023-04-15T00:34:39.585Z,99.90
2023-04-15T00:37:46.064Z,99.90
2023-04-15T00:40:49.581Z,99.90
2023-04-15T00:43:52.680Z,99.90
2023-04-15T00:46:55.535Z,99.90
2023-04-15T00:49:59.162Z,99.90
2023-04-15T00:53:03.317Z,99.90
2023-04-15T00:56:07.099Z,99.90
2023-04-15T00:59:10.209Z,99.90
2023-04-15T01:02:13.193Z,99.90
2023-04-15T01:05:18.616Z,99.90
2023-04-15T01:08:22.776Z,99.90
2023-04-15T01:11:26.535Z,99.90
2023-04-15T01:14:29.758Z,99.90
2023-04-15T01:17:32.890Z,99.90
2023-04-15T01:20:36.328Z,99.90
2023-04-15T01:23:40.792Z,99.90
2023-04-15T01:26:45.044Z,99.90
2023-04-15T01:29:48.194Z,99.90
2023-04-15T01:32:51.056Z,99.90
2023-04-15T01:35:54.043Z,99.90
2023-04-15T01:38:57.744Z,99.90
2023-04-15T01:42:02.349Z,99.90
2023-04-15T01:45:06.322Z,99.90
2023-04-15T01:48:09.778Z,99.90
2023-04-15T01:51:12.862Z,99.90
2023-04-15T01:54:15.670Z,99.90
2023-04-15T01:57:19.827Z,99.90
2023-04-15T02:00:23.161Z,99.90
2023-04-15T02:03:26.463Z,99.90
2023-04-15T02:06:29.306Z,99.90
2023-04-15T02:09:32.301Z,99.90
2023-04-15T02:12:36.804Z,99.90
2023-04-15T02:15:39.627Z,99.90
2023-04-15T02:18:42.998Z,99.90
2023-04-15T02:21:45.796Z,99.90
2023-04-15T02:24:48.641Z,99.90
2023-04-15T02:27:53.230Z,99.90
2023-04-15T02:30:57.617Z,99.90
2023-04-15T02:34:00.407Z,99.90
2023-04-15T02:37:03.811Z,99.90
2023-04-15T02:40:08.046Z,99.90
2023-04-15T02:43:12.497Z,99.90
2023-04-15T02:46:15.331Z,99.90
2023-04-15T02:49:18.172Z,99.90
2023-04-15T02:52:21.196Z,99.90
2023-04-15T02:55:24.055Z,99.90
2023-04-15T02:58:28.207Z,99.90
2023-04-15T03:01:31.051Z,99.90
2023-04-15T03:04:33.907Z,99.90
2023-04-15T03:07:36.701Z,99.90
2023-04-15T03:10:39.474Z,99.90
2023-04-15T03:13:44.125Z,99.90
2023-04-15T03:16:46.953Z,99.90
2023-04-15T03:19:49.730Z,99.90
2023-04-15T03:22:52.654Z,99.90
2023-04-15T03:25:57.308Z,99.90
2023-04-15T03:29:01.793Z,99.90
2023-04-15T03:32:05.151Z,99.90
2023-04-15T03:35:08.329Z,99.90
2023-04-15T03:38:11.173Z,99.90
2023-04-15T03:41:14.144Z,99.90
2023-04-15T03:44:18.288Z,99.90
2023-04-15T03:47:21.174Z,99.90
2023-04-15T03:50:24.171Z,99.90
2023-04-15T03:53:26.958Z,99.90
2023-04-15T03:56:29.777Z,99.90
2023-04-15T03:59:33.927Z,99.90
2023-04-15T04:02:36.939Z,99.90
2023-04-15T04:05:41.529Z,99.90
2023-04-15T04:08:44.631Z,99.90
2023-04-15T04:11:47.433Z,99.90
2023-04-15T04:14:51.558Z,99.90
2023-04-15T04:17:54.409Z,99.90
2023-04-15T04:20:57.233Z,99.90
2023-04-15T04:24:00.540Z,99.90
2023-04-15T04:27:03.390Z,99.90
2023-04-15T04:30:09.156Z,99.90
2023-04-15T04:33:11.974Z,99.90
2023-04-15T04:36:14.767Z,99.90
2023-04-15T04:39:17.560Z,99.90
2023-04-15T04:42:20.384Z,99.90
2023-04-15T04:45:24.542Z,99.90
2023-04-15T04:48:27.347Z,99.90
2023-04-15T04:51:30.965Z,99.90
2023-04-15T04:54:33.790Z,99.90
2023-04-15T04:57:37.690Z,99.90
2023-04-15T05:00:42.785Z,99.90
2023-04-15T05:03:45.830Z,99.90
2023-04-15T05:06:48.756Z,99.90
2023-04-15T05:09:51.553Z,99.90
2023-04-15T05:12:54.336Z,99.90
2023-04-15T05:15:58.504Z,99.90
2023-04-15T05:19:01.498Z,99.90
2023-04-15T05:22:04.538Z,99.90
2023-04-15T05:25:08.557Z,99.90
2023-04-15T05:28:12.406Z,99.90
2023-04-15T05:31:16.664Z,99.90
2023-04-15T05:34:19.724Z,99.90
2023-04-15T05:37:22.525Z,99.90
2023-04-15T05:40:25.320Z,99.90
2023-04-15T05:43:28.126Z,99.90
2023-04-15T05:46:32.291Z,99.60
2023-04-15T05:49:35.591Z,99.60
2023-04-15T05:52:38.394Z,99.40
2023-04-15T05:55:41.201Z,98.80
2023-04-15T05:58:44.013Z,98.90
2023-04-15T06:01:48.263Z,98.60
2023-04-15T06:04:51.224Z,98.70
2023-04-15T06:07:54.051Z,98.70
2023-04-15T06:10:56.935Z,98.20
2023-04-15T06:13:59.780Z,98.70
2023-04-15T06:17:03.904Z,98.70
2023-04-15T06:20:08.441Z,98.40
2023-04-15T06:23:11.320Z,98.40
2023-04-15T06:26:14.100Z,98.80
2023-04-15T06:29:16.915Z,98.20
2023-04-15T06:32:21.264Z,98.40
2023-04-15T06:35:24.332Z,98.60
2023-04-15T06:38:27.154Z,97.70
2023-04-15T06:41:30.015Z,97.80
2023-04-15T06:44:33.908Z,98.30
2023-04-15T06:47:38.319Z,97.50
2023-04-15T06:50:41.478Z,97.20
2023-04-15T06:53:44.264Z,97.80
2023-04-15T06:56:47.495Z,97.50
2023-04-15T06:59:50.348Z,97.40
2023-04-15T07:02:55.260Z,96.80
2023-04-15T07:05:58.666Z,97.80
2023-04-15T07:09:01.971Z,97.60
2023-04-15T07:12:05.195Z,97.20
2023-04-15T07:15:08.808Z,97.00
2023-04-15T07:18:13.628Z,97.00
2023-04-15T07:21:16.475Z,97.00
2023-04-15T07:24:20.714Z,96.50
2023-04-15T07:27:23.552Z,96.90
2023-04-15T07:30:26.363Z,96.60
2023-04-15T07:33:30.999Z,96.70
2023-04-15T07:36:33.811Z,96.00
2023-04-15T07:39:37.030Z,95.60
2023-04-15T07:42:41.376Z,95.40
2023-04-15T07:45:44.492Z,95.40
2023-04-15T07:48:48.781Z,95.50
2023-04-15T07:51:51.596Z,94.70
2023-04-15T07:54:54.381Z,95.30
2023-04-15T07:57:57.571Z,94.70
2023-04-15T08:01:00.819Z,94.70
2023-04-15T08:04:05.155Z,94.40
2023-04-15T08:07:08.045Z,94.70
2023-04-15T08:10:12.091Z,94.50
2023-04-15T08:13:14.963Z,94.40
2023-04-15T08:16:20.446Z,94.00
2023-04-15T08:19:24.572Z,94.20
2023-04-15T08:22:27.572Z,93.60
2023-04-15T08:25:30.447Z,94.10
2023-04-15T08:28:33.476Z,93.90
2023-04-15T08:31:36.388Z,93.20
2023-04-15T08:34:40.600Z,94.10
2023-04-15T08:37:43.731Z,93.60
2023-04-15T08:40:47.889Z,93.50
2023-04-15T08:43:55.604Z,94.10
2023-04-15T08:47:02.013Z,93.70
2023-04-15T08:50:09.593Z,93.60
2023-04-15T08:53:13.089Z,94.10
2023-04-15T08:56:17.398Z,93.60
2023-04-15T08:59:21.425Z,93.80
2023-04-15T09:02:26.228Z,93.10
2023-04-15T09:05:34.012Z,93.50
2023-04-15T09:08:36.938Z,93.40
2023-04-15T09:11:40.324Z,93.30
2023-04-15T09:14:44.391Z,92.30
2023-04-15T09:17:48.645Z,93.10
2023-04-15T09:20:54.826Z,93.00
2023-04-15T09:24:00.340Z,92.80
2023-04-15T09:27:03.666Z,93.50
2023-04-15T09:30:10.570Z,93.10
2023-04-15T09:33:16.553Z,93.10
2023-04-15T09:36:21.079Z,93.60
2023-04-15T09:39:23.916Z,92.90
2023-04-15T09:42:27.967Z,93.10
2023-04-15T09:45:31.811Z,93.40
2023-04-15T09:48:34.625Z,92.40
2023-04-15T09:51:39.146Z,93.00
2023-04-15T09:54:41.948Z,93.30
2023-04-15T09:57:47.161Z,93.40
2023-04-15T10:00:51.382Z,93.00
2023-04-15T10:03:57.171Z,92.70
2023-04-15T10:07:02.108Z,92.70
2023-04-15T10:10:06.354Z,92.90
2023-04-15T10:13:10.438Z,93.30
2023-04-15T10:16:16.863Z,92.90
2023-04-15T10:19:22.968Z,91.80
2023-04-15T10:22:29.151Z,91.90
2023-04-15T10:25:34.536Z,91.80
2023-04-15T10:28:37.352Z,91.90
2023-04-15T10:31:41.123Z,91.60
2023-04-15T10:34:44.542Z,92.00
2023-04-15T10:37:48.880Z,91.50
2023-04-15T10:40:51.819Z,91.70
2023-04-15T10:43:56.190Z,91.40
2023-04-15T10:47:00.024Z,92.20
2023-04-15T10:50:03.568Z,92.00
2023-04-15T10:53:11.390Z,91.80
2023-04-15T10:56:14.204Z,91.80
2023-04-15T10:59:17.842Z,92.00
2023-04-15T11:02:20.873Z,91.60
2023-04-15T11:05:44.231Z,91.80
2023-04-15T11:09:03.395Z,91.50
2023-04-15T11:12:08.424Z,91.00
2023-04-15T11:15:30.368Z,91.20
2023-04-15T11:18:35.089Z,91.10
2023-04-15T11:21:37.943Z,91.80
2023-04-15T11:24:50.499Z,91.70
2023-04-15T11:27:54.732Z,91.20
2023-04-15T11:30:58.191Z,92.20
2023-04-15T11:34:02.834Z,92.30
2023-04-15T11:37:07.829Z,91.80
2023-04-15T11:40:12.812Z,91.60
2023-04-15T11:43:18.627Z,91.70
2023-04-15T11:46:22.869Z,91.90
2023-04-15T11:49:30.326Z,92.00
2023-04-15T11:52:33.193Z,92.30
2023-04-15T11:55:46.332Z,91.30
2023-04-15T11:58:52.708Z,91.30
2023-04-15T12:01:56.091Z,91.80
2023-04-15T12:05:05.293Z,91.10
2023-04-15T12:08:08.333Z,91.40
2023-04-15T12:11:12.609Z,91.60
2023-04-15T12:14:22.310Z,91.30
2023-04-15T12:17:25.181Z,90.90
2023-04-15T12:20:27.985Z,90.90
2023-04-15T12:23:30.892Z,91.20
2023-04-15T12:26:37.898Z,90.60
2023-04-15T12:29:41.946Z,90.30
2023-04-15T12:32:47.220Z,88.40
2023-04-15T12:35:50.050Z,86.30
2023-04-15T12:38:52.955Z,83.60
2023-04-15T12:41:57.938Z,83.80
2023-04-15T12:45:00.822Z,85.30
2023-04-15T12:48:03.684Z,85.30
2023-04-15T12:51:06.679Z,85.20
2023-04-15T12:54:09.530Z,85.30
2023-04-15T12:57:13.659Z,84.10
2023-04-15T13:00:17.583Z,82.50
2023-04-15T13:03:20.662Z,81.00
2023-04-15T13:06:24.065Z,82.90
2023-04-15T13:09:27.081Z,82.20
2023-04-15T13:12:31.336Z,83.20
2023-04-15T13:15:34.141Z,83.50
2023-04-15T13:18:36.994Z,82.40
2023-04-15T13:21:39.781Z,83.50
2023-04-15T13:24:42.636Z,85.20
2023-04-15T13:27:47.141Z,84.60
2023-04-15T13:30:49.986Z,84.80
2023-04-15T13:33:52.795Z,85.70
2023-04-15T13:36:55.697Z,87.40
2023-04-15T13:39:58.617Z,89.10
2023-04-15T13:43:03.359Z,91.20
2023-04-15T13:46:06.915Z,92.00
2023-04-15T13:49:09.851Z,91.50
2023-04-15T13:52:12.734Z,90.80
2023-04-15T13:55:19.872Z,91.20
2023-04-15T13:58:26.015Z,90.80
2023-04-15T14:01:28.935Z,90.00
2023-04-15T14:04:33.387Z,90.30
2023-04-15T14:07:36.490Z,90.30
2023-04-15T14:10:39.748Z,89.80
2023-04-15T14:13:43.875Z,89.60
2023-04-15T14:16:47.838Z,87.90
2023-04-15T14:19:50.703Z,89.20
2023-04-15T14:22:53.497Z,88.50
2023-04-15T14:25:56.357Z,87.60
2023-04-15T14:29:00.622Z,88.70
2023-04-15T14:32:11.285Z,88.20
2023-04-15T14:35:15.408Z,88.20
2023-04-15T14:38:18.331Z,88.50
2023-04-15T14:41:22.333Z,88.80
2023-04-15T14:44:26.526Z,87.60
2023-04-15T14:47:29.328Z,88.70
2023-04-15T14:50:32.242Z,89.10
2023-04-15T14:53:35.192Z,90.10
2023-04-15T14:56:38.000Z,90.10
2023-04-15T14:59:42.154Z,90.40
2023-04-15T15:02:47.319Z,91.40
2023-04-15T15:05:50.331Z,92.50
2023-04-15T15:08:53.219Z,94.30
2023-04-15T15:11:56.920Z,93.30
2023-04-15T15:15:03.061Z,93.70
2023-04-15T15:18:08.143Z,93.60
2023-04-15T15:21:11.403Z,94.80
2023-04-15T15:24:14.215Z,94.90
2023-04-15T15:27:17.078Z,95.40
2023-04-15T15:30:21.379Z,95.40
2023-04-15T15:33:24.292Z,95.70
2023-04-15T15:36:27.344Z,95.90
2023-04-15T15:39:30.384Z,95.60
2023-04-15T15:42:33.492Z,95.90
2023-04-15T15:45:37.728Z,96.00
2023-04-15T15:48:40.558Z,96.10
2023-04-15T15:51:43.502Z,95.80
2023-04-15T15:54:46.329Z,96.40
2023-04-15T15:57:49.801Z,95.80
2023-04-15T16:00:54.523Z,95.80
2023-04-15T16:03:57.450Z,96.10
2023-04-15T16:07:00.333Z,96.30
2023-04-15T16:10:03.395Z,95.90
2023-04-15T16:13:06.348Z,95.70
2023-04-15T16:16:10.619Z,95.50
2023-04-15T16:19:13.468Z,95.50
2023-04-15T16:22:16.277Z,95.80
2023-04-15T16:25:19.556Z,95.90
2023-04-15T16:28:26.798Z,96.10
2023-04-15T16:31:31.978Z,96.10
2023-04-15T16:34:35.350Z,95.40
2023-04-15T16:37:38.130Z,95.80
2023-04-15T16:40:41.252Z,95.60
2023-04-15T16:43:44.051Z,96.10
2023-04-15T16:46:48.227Z,96.10
2023-04-15T16:49:51.263Z,95.70
2023-04-15T16:52:54.056Z,96.00
2023-04-15T16:55:56.872Z,96.00
2023-04-15T16:58:59.701Z,95.60
2023-04-15T17:02:03.940Z,96.60
2023-04-15T17:05:07.839Z,96.60
2023-04-15T17:08:11.119Z,96.80
2023-04-15T17:11:15.113Z,96.80
2023-04-15T17:14:17.938Z,97.10
2023-04-15T17:17:22.889Z,97.90
2023-04-15T17:20:26.449Z,98.20
2023-04-15T17:23:29.257Z,98.40
2023-04-15T17:26:32.104Z,98.70
2023-04-15T17:29:34.979Z,98.50
2023-04-15T17:32:40.233Z,98.50
2023-04-15T17:35:43.189Z,98.30
2023-04-15T17:38:45.990Z,97.90
2023-04-15T17:41:48.925Z,98.70
2023-04-15T17:44:51.809Z,98.70
2023-04-15T17:47:55.996Z,98.50
2023-04-15T17:50:58.836Z,98.90
2023-04-15T17:54:01.649Z,98.70
2023-04-15T17:57:04.515Z,99.00
2023-04-15T18:00:10.134Z,99.10
2023-04-15T18:03:14.780Z,99.60
2023-04-15T18:06:17.795Z,99.30
2023-04-15T18:09:20.834Z,99.30
2023-04-15T18:12:23.686Z,99.60
2023-04-15T18:15:26.594Z,99.60
2023-04-15T18:18:30.732Z,99.50
2023-04-15T18:21:33.533Z,99.60
2023-04-15T18:24:36.369Z,99.50
2023-04-15T18:27:39.939Z,99.40
2023-04-15T18:30:42.853Z,99.90
2023-04-15T18:33:47.017Z,99.90
2023-04-15T18:36:49.894Z,99.90
2023-04-15T18:39:54.068Z,99.90
2023-04-15T18:42:56.883Z,99.90
2023-04-15T18:46:01.809Z,99.90
2023-04-15T18:49:06.198Z,99.90
2023-04-15T18:52:09.701Z,99.90
2023-04-15T18:55:12.506Z,99.90
2023-04-15T18:58:15.535Z,99.90
2023-04-15T19:01:18.392Z,99.90
2023-04-15T19:04:25.517Z,99.90
2023-04-15T19:07:30.679Z,99.90
2023-04-15T19:10:34.824Z,99.90
2023-04-15T19:13:39.993Z,99.90
2023-04-15T19:16:42.848Z,99.90
2023-04-15T19:19:49.358Z,99.90
2023-04-15T19:22:52.420Z,99.90
2023-04-15T19:25:55.487Z,99.90
2023-04-15T19:28:59.131Z,99.90
2023-04-15T19:32:01.987Z,99.90
2023-04-15T19:35:09.917Z,99.90
2023-04-15T19:38:14.093Z,99.90
2023-04-15T19:41:16.876Z,99.90
2023-04-15T19:44:19.834Z,99.90
2023-04-15T19:47:25.920Z,99.90
2023-04-15T19:50:30.099Z,99.90
2023-04-15T19:53:36.927Z,99.90
2023-04-15T19:56:39.752Z,99.90
2023-04-15T19:59:45.193Z,99.90
2023-04-15T20:02:51.366Z,99.90
2023-04-15T20:05:56.925Z,99.90
2023-04-15T20:08:59.851Z,99.90
2023-04-15T20:12:45.008Z,99.90
2023-04-15T20:15:27.341Z,99.90
2023-04-15T20:18:30.727Z,99.90
2023-04-15T20:21:35.018Z,99.90
2023-04-15T20:24:37.935Z,99.90
2023-04-15T20:27:40.906Z,99.90
2023-04-15T20:30:43.760Z,99.90
2023-04-15T20:33:46.584Z,99.90
2023-04-15T20:36:50.720Z,99.90
2023-04-15T20:39:53.729Z,99.90
2023-04-15T20:42:56.612Z,99.90
2023-04-15T20:46:07.030Z,99.90
2023-04-15T20:49:20.518Z,99.90
2023-04-15T20:52:24.973Z,99.90
2023-04-15T20:55:30.183Z,99.90
2023-04-15T20:58:33.526Z,99.90
2023-04-15T21:01:36.359Z,99.90
2023-04-15T21:04:39.257Z,99.90
2023-04-15T21:07:43.421Z,99.90
2023-04-15T21:10:46.289Z,99.90
2023-04-15T21:13:50.671Z,99.90
2023-04-15T21:16:53.634Z,99.90
2023-04-15T21:19:56.397Z,99.90
2023-04-15T21:23:00.592Z,99.90
2023-04-15T21:26:03.537Z,99.90
2023-04-15T21:29:08.745Z,99.90
2023-04-15T21:32:13.465Z,99.90
2023-04-15T21:35:16.409Z,99.90
2023-04-15T21:38:22.733Z,99.90
2023-04-15T21:41:26.509Z,99.90
2023-04-15T21:44:29.612Z,99.90
2023-04-15T21:47:32.640Z,99.90
2023-04-15T21:50:59.373Z,99.90
2023-04-15T21:54:03.559Z,99.90
2023-04-15T21:57:06.591Z,99.90
2023-04-15T22:00:11.468Z,99.90
2023-04-15T22:03:14.591Z,99.90
2023-04-15T22:06:17.494Z,99.90
2023-04-15T22:09:21.611Z,99.90
2023-04-15T22:12:24.436Z,99.90
2023-04-15T22:15:27.222Z,99.90
2023-04-15T22:18:30.057Z,99.90
2023-04-15T22:21:33.266Z,99.90
2023-04-15T22:24:39.862Z,99.90
2023-04-15T22:27:43.767Z,99.90
2023-04-15T22:30:46.566Z,99.90
2023-04-15T22:33:49.344Z,99.90
2023-04-15T22:36:53.006Z,99.90
2023-04-15T22:39:57.290Z,99.90
2023-04-15T22:43:00.546Z,99.90
2023-04-15T22:46:03.405Z,99.90
2023-04-15T22:49:09.031Z,99.90
2023-04-15T22:52:17.092Z,99.90
2023-04-15T22:55:28.013Z,99.90
2023-04-15T22:58:31.977Z,99.90
2023-04-15T23:01:34.958Z,99.90
2023-04-15T23:04:37.985Z,99.90
2023-04-15T23:07:41.037Z,99.90
2023-04-15T23:10:45.218Z,99.90
2023-04-15T23:13:48.026Z,99.90
2023-04-15T23:16:51.014Z,99.90
2023-04-15T23:19:53.839Z,99.90
2023-04-15T23:22:56.608Z,99.90
2023-04-15T23:26:01.287Z,99.90
2023-04-15T23:29:04.059Z,99.90
2023-04-15T23:32:07.536Z,99.90
2023-04-15T23:35:10.819Z,99.90
2023-04-15T23:38:13.576Z,99.90
2023-04-15T23:41:17.708Z,99.90
2023-04-15T23:44:20.865Z,99.90
2023-04-15T23:47:24.100Z,99.90
2023-04-15T23:50:28.287Z,99.90
2023-04-15T23:53:31.385Z,99.90
2023-04-15T23:56:35.633Z,99.90
2023-04-15T23:59:38.423Z,99.90
